sensor_id;sensor_type;location;lat;lon;timestamp;temperature;humidity
65462;DHT22;53236;43.666;18.444;2022-11-15T00:00:28;13.00;99.90
65462;DHT22;53236;43.666;18.444;2022-11-15T00:02:54;12.80;99.90
65462;DHT22;53236;43.666;18.444;2022-11-15T00:05:20;12.90;99.90
65462;DHT22;53236;43.666;18.444;2022-11-15T00:07:46;12.90;99.90
65462;DHT22;53236;43.666;18.444;2022-11-15T00:10:13;12.90;99.90
65462;DHT22;53236;43.666;18.444;2022-11-15T00:12:38;13.00;99.90
65462;DHT22;53236;43.666;18.444;2022-11-15T00:15:05;13.00;99.90
65462;DHT22;53236;43.666;18.444;2022-11-15T00:17:30;13.00;99.90
65462;DHT22;53236;43.666;18.444;2022-11-15T00:19:56;13.10;99.90
65462;DHT22;53236;43.666;18.444;2022-11-15T00:22:22;13.10;99.90
65462;DHT22;53236;43.666;18.444;2022-11-15T00:24:48;13.10;99.90
65462;DHT22;53236;43.666;18.444;2022-11-15T00:27:13;13.00;99.90
65462;DHT22;53236;43.666;18.444;2022-11-15T00:29:39;12.90;99.90
65462;DHT22;53236;43.666;18.444;2022-11-15T00:32:09;12.90;99.90
65462;DHT22;53236;43.666;18.444;2022-11-15T00:34:35;12.90;99.90
65462;DHT22;53236;43.666;18.444;2022-11-15T00:37:01;13.10;99.90
65462;DHT22;53236;43.666;18.444;2022-11-15T00:39:27;13.00;99.90
65462;DHT22;53236;43.666;18.444;2022-11-15T00:41:52;13.10;99.90
65462;DHT22;53236;43.666;18.444;2022-11-15T00:44:18;13.00;99.90
65462;DHT22;53236;43.666;18.444;2022-11-15T00:46:44;13.10;99.90
65462;DHT22;53236;43.666;18.444;2022-11-15T00:49:09;13.20;99.90
65462;DHT22;53236;43.666;18.444;2022-11-15T00:51:35;13.10;99.90
65462;DHT22;53236;43.666;18.444;2022-11-15T00:54:01;12.80;99.90
65462;DHT22;53236;43.666;18.444;2022-11-15T00:56:26;12.80;99.90
65462;DHT22;53236;43.666;18.444;2022-11-15T00:58:53;12.80;99.90
65462;DHT22;53236;43.666;18.444;2022-11-15T01:01:18;12.90;99.90
65462;DHT22;53236;43.666;18.444;2022-11-15T01:03:44;12.80;99.90
65462;DHT22;53236;43.666;18.444;2022-11-15T01:06:10;12.90;99.90
65462;DHT22;53236;43.666;18.444;2022-11-15T01:08:39;12.90;99.90
65462;DHT22;53236;43.666;18.444;2022-11-15T01:11:07;12.90;99.90
65462;DHT22;53236;43.666;18.444;2022-11-15T01:13:36;12.90;99.90
65462;DHT22;53236;43.666;18.444;2022-11-15T01:16:16;12.90;99.90
65462;DHT22;53236;43.666;18.444;2022-11-15T01:18:44;12.90;99.90
65462;DHT22;53236;43.666;18.444;2022-11-15T01:21:13;12.80;99.90
65462;DHT22;53236;43.666;18.444;2022-11-15T01:23:40;12.90;99.90
65462;DHT22;53236;43.666;18.444;2022-11-15T01:26:09;13.00;99.90
65462;DHT22;53236;43.666;18.444;2022-11-15T01:28:37;12.90;99.90
65462;DHT22;53236;43.666;18.444;2022-11-15T01:31:06;12.50;99.90
65462;DHT22;53236;43.666;18.444;2022-11-15T01:33:34;12.60;99.90
65462;DHT22;53236;43.666;18.444;2022-11-15T01:36:05;12.70;99.90
65462;DHT22;53236;43.666;18.444;2022-11-15T01:38:31;12.90;99.90
65462;DHT22;53236;43.666;18.444;2022-11-15T01:40:56;12.80;99.90
65462;DHT22;53236;43.666;18.444;2022-11-15T01:43:34;12.90;99.90
65462;DHT22;53236;43.666;18.444;2022-11-15T01:46:17;13.00;99.90
65462;DHT22;53236;43.666;18.444;2022-11-15T01:48:44;13.00;99.90
65462;DHT22;53236;43.666;18.444;2022-11-15T01:51:13;12.80;99.90
65462;DHT22;53236;43.666;18.444;2022-11-15T01:53:44;12.90;99.90
65462;DHT22;53236;43.666;18.444;2022-11-15T01:56:13;12.80;99.90
65462;DHT22;53236;43.666;18.444;2022-11-15T01:58:40;12.60;99.90
65462;DHT22;53236;43.666;18.444;2022-11-15T02:01:06;12.30;99.90
65462;DHT22;53236;43.666;18.444;2022-11-15T02:03:52;12.50;99.90
65462;DHT22;53236;43.666;18.444;2022-11-15T02:06:18;12.30;99.90
65462;DHT22;53236;43.666;18.444;2022-11-15T02:08:44;12.60;99.90
65462;DHT22;53236;43.666;18.444;2022-11-15T02:11:10;12.60;99.90
65462;DHT22;53236;43.666;18.444;2022-11-15T02:13:37;12.50;99.90
65462;DHT22;53236;43.666;18.444;2022-11-15T02:16:16;12.40;99.90
65462;DHT22;53236;43.666;18.444;2022-11-15T02:21:44;12.30;99.90
65462;DHT22;53236;43.666;18.444;2022-11-15T02:30:34;12.40;99.90
65462;DHT22;53236;43.666;18.444;2022-11-15T02:35:57;12.50;99.90
65462;DHT22;53236;43.666;18.444;2022-11-15T02:39:10;12.50;99.90
65462;DHT22;53236;43.666;18.444;2022-11-15T02:42:12;12.60;99.90
65462;DHT22;53236;43.666;18.444;2022-11-15T02:45:03;12.60;99.90
65462;DHT22;53236;43.666;18.444;2022-11-15T02:47:34;12.70;99.90
65462;DHT22;53236;43.666;18.444;2022-11-15T02:50:06;12.80;99.90
65462;DHT22;53236;43.666;18.444;2022-11-15T02:52:33;12.70;99.90
65462;DHT22;53236;43.666;18.444;2022-11-15T02:55:00;12.70;99.90
65462;DHT22;53236;43.666;18.444;2022-11-15T03:00:18;12.70;99.90
65462;DHT22;53236;43.666;18.444;2022-11-15T03:02:57;12.70;99.90
65462;DHT22;53236;43.666;18.444;2022-11-15T03:05:34;12.70;99.90
65462;DHT22;53236;43.666;18.444;2022-11-15T03:10:54;12.70;99.90
65462;DHT22;53236;43.666;18.444;2022-11-15T03:13:45;12.60;99.90
65462;DHT22;53236;43.666;18.444;2022-11-15T03:16:24;12.70;99.90
65462;DHT22;53236;43.666;18.444;2022-11-15T03:18:57;12.60;99.90
65462;DHT22;53236;43.666;18.444;2022-11-15T03:21:24;12.60;99.90
65462;DHT22;53236;43.666;18.444;2022-11-15T03:23:53;12.40;99.90
65462;DHT22;53236;43.666;18.444;2022-11-15T03:26:21;12.50;99.90
65462;DHT22;53236;43.666;18.444;2022-11-15T03:29:01;12.50;99.90
65462;DHT22;53236;43.666;18.444;2022-11-15T03:31:31;12.60;99.90
65462;DHT22;53236;43.666;18.444;2022-11-15T03:35:26;12.70;99.90
65462;DHT22;53236;43.666;18.444;2022-11-15T03:37:24;12.70;99.90
65462;DHT22;53236;43.666;18.444;2022-11-15T03:39:54;12.20;99.90
65462;DHT22;53236;43.666;18.444;2022-11-15T03:42:38;12.30;99.90
65462;DHT22;53236;43.666;18.444;2022-11-15T03:45:23;11.90;99.90
65462;DHT22;53236;43.666;18.444;2022-11-15T03:47:58;12.00;99.90
65462;DHT22;53236;43.666;18.444;2022-11-15T03:50:26;12.10;99.90
65462;DHT22;53236;43.666;18.444;2022-11-15T03:52:54;12.20;99.90
65462;DHT22;53236;43.666;18.444;2022-11-15T03:55:21;12.40;99.90
65462;DHT22;53236;43.666;18.444;2022-11-15T03:57:53;12.40;99.90
65462;DHT22;53236;43.666;18.444;2022-11-15T04:00:19;12.40;99.90
65462;DHT22;53236;43.666;18.444;2022-11-15T04:02:45;12.10;99.90
65462;DHT22;53236;43.666;18.444;2022-11-15T04:05:11;11.90;99.90
65462;DHT22;53236;43.666;18.444;2022-11-15T04:07:37;12.00;99.90
65462;DHT22;53236;43.666;18.444;2022-11-15T04:10:02;11.80;99.90
65462;DHT22;53236;43.666;18.444;2022-11-15T04:12:30;12.00;99.90
65462;DHT22;53236;43.666;18.444;2022-11-15T04:15:07;12.00;99.90
65462;DHT22;53236;43.666;18.444;2022-11-15T04:20:18;12.10;99.90
65462;DHT22;53236;43.666;18.444;2022-11-15T04:23:06;12.10;99.90
65462;DHT22;53236;43.666;18.444;2022-11-15T04:25:52;12.20;99.90
65462;DHT22;53236;43.666;18.444;2022-11-15T04:28:18;12.20;99.90
65462;DHT22;53236;43.666;18.444;2022-11-15T04:30:44;12.20;99.90
65462;DHT22;53236;43.666;18.444;2022-11-15T04:33:10;12.30;99.90
65462;DHT22;53236;43.666;18.444;2022-11-15T04:35:36;12.00;99.90
65462;DHT22;53236;43.666;18.444;2022-11-15T04:38:02;12.20;99.90
65462;DHT22;53236;43.666;18.444;2022-11-15T04:40:28;12.10;99.90
65462;DHT22;53236;43.666;18.444;2022-11-15T04:42:54;12.10;99.90
65462;DHT22;53236;43.666;18.444;2022-11-15T04:45:20;12.00;99.90
65462;DHT22;53236;43.666;18.444;2022-11-15T04:47:46;12.00;99.90
65462;DHT22;53236;43.666;18.444;2022-11-15T04:50:12;12.10;99.90
65462;DHT22;53236;43.666;18.444;2022-11-15T04:52:43;12.00;99.90
65462;DHT22;53236;43.666;18.444;2022-11-15T04:55:10;12.00;99.90
65462;DHT22;53236;43.666;18.444;2022-11-15T04:57:37;12.00;99.90
65462;DHT22;53236;43.666;18.444;2022-11-15T05:00:08;12.00;99.90
65462;DHT22;53236;43.666;18.444;2022-11-15T05:02:34;11.90;99.90
65462;DHT22;53236;43.666;18.444;2022-11-15T05:05:18;12.00;99.90
65462;DHT22;53236;43.666;18.444;2022-11-15T05:07:44;11.80;99.90
65462;DHT22;53236;43.666;18.444;2022-11-15T05:10:10;11.60;99.90
65462;DHT22;53236;43.666;18.444;2022-11-15T05:12:36;11.60;99.90
65462;DHT22;53236;43.666;18.444;2022-11-15T05:15:02;11.70;99.90
65462;DHT22;53236;43.666;18.444;2022-11-15T05:17:28;11.70;99.90
65462;DHT22;53236;43.666;18.444;2022-11-15T05:19:53;11.50;99.90
65462;DHT22;53236;43.666;18.444;2022-11-15T05:22:20;11.30;99.90
65462;DHT22;53236;43.666;18.444;2022-11-15T05:24:45;11.20;99.90
65462;DHT22;53236;43.666;18.444;2022-11-15T05:27:11;11.40;99.90
65462;DHT22;53236;43.666;18.444;2022-11-15T05:29:37;11.30;99.90
65462;DHT22;53236;43.666;18.444;2022-11-15T05:32:05;11.30;99.90
65462;DHT22;53236;43.666;18.444;2022-11-15T05:34:31;11.30;99.90
65462;DHT22;53236;43.666;18.444;2022-11-15T05:36:57;11.10;99.90
65462;DHT22;53236;43.666;18.444;2022-11-15T05:39:23;11.20;99.90
65462;DHT22;53236;43.666;18.444;2022-11-15T05:41:54;11.00;99.90
65462;DHT22;53236;43.666;18.444;2022-11-15T05:44:23;11.00;99.90
65462;DHT22;53236;43.666;18.444;2022-11-15T05:46:50;11.20;99.90
65462;DHT22;53236;43.666;18.444;2022-11-15T05:49:21;11.20;99.90
65462;DHT22;53236;43.666;18.444;2022-11-15T05:51:48;11.30;99.90
65462;DHT22;53236;43.666;18.444;2022-11-15T05:54:16;11.30;99.90
65462;DHT22;53236;43.666;18.444;2022-11-15T05:56:43;11.10;99.90
65462;DHT22;53236;43.666;18.444;2022-11-15T05:59:09;11.20;99.90
65462;DHT22;53236;43.666;18.444;2022-11-15T06:01:36;10.90;99.90
65462;DHT22;53236;43.666;18.444;2022-11-15T06:04:02;11.10;99.90
65462;DHT22;53236;43.666;18.444;2022-11-15T06:06:28;10.80;99.90
65462;DHT22;53236;43.666;18.444;2022-11-15T06:08:54;11.10;99.90
65462;DHT22;53236;43.666;18.444;2022-11-15T06:11:20;11.30;99.90
65462;DHT22;53236;43.666;18.444;2022-11-15T06:13:46;11.40;99.90
65462;DHT22;53236;43.666;18.444;2022-11-15T06:16:11;11.60;99.90
65462;DHT22;53236;43.666;18.444;2022-11-15T06:18:37;11.90;99.90
65462;DHT22;53236;43.666;18.444;2022-11-15T06:21:04;12.10;99.90
65462;DHT22;53236;43.666;18.444;2022-11-15T06:23:32;12.30;99.90
65462;DHT22;53236;43.666;18.444;2022-11-15T06:25:59;12.30;99.90
65462;DHT22;53236;43.666;18.444;2022-11-15T06:28:27;12.20;99.90
65462;DHT22;53236;43.666;18.444;2022-11-15T06:30:53;12.40;99.90
65462;DHT22;53236;43.666;18.444;2022-11-15T06:33:19;12.60;99.90
65462;DHT22;53236;43.666;18.444;2022-11-15T06:35:44;12.60;99.90
65462;DHT22;53236;43.666;18.444;2022-11-15T06:38:10;12.70;99.90
65462;DHT22;53236;43.666;18.444;2022-11-15T06:40:37;12.80;99.90
65462;DHT22;53236;43.666;18.444;2022-11-15T06:43:05;12.80;99.90
65462;DHT22;53236;43.666;18.444;2022-11-15T06:45:31;12.80;99.90
65462;DHT22;53236;43.666;18.444;2022-11-15T06:47:57;12.70;99.90
65462;DHT22;53236;43.666;18.444;2022-11-15T06:50:23;13.00;99.90
65462;DHT22;53236;43.666;18.444;2022-11-15T06:52:49;13.20;99.90
65462;DHT22;53236;43.666;18.444;2022-11-15T06:55:15;13.30;99.90
65462;DHT22;53236;43.666;18.444;2022-11-15T06:57:49;13.70;99.90
65462;DHT22;53236;43.666;18.444;2022-11-15T07:00:16;14.40;99.90
65462;DHT22;53236;43.666;18.444;2022-11-15T07:02:42;15.60;96.20
65462;DHT22;53236;43.666;18.444;2022-11-15T07:05:08;17.50;91.00
65462;DHT22;53236;43.666;18.444;2022-11-15T07:07:33;19.90;74.20
65462;DHT22;53236;43.666;18.444;2022-11-15T07:09:59;22.10;65.20
65462;DHT22;53236;43.666;18.444;2022-11-15T07:12:25;24.00;58.00
65462;DHT22;53236;43.666;18.444;2022-11-15T07:14:50;25.20;53.50
65462;DHT22;53236;43.666;18.444;2022-11-15T07:17:16;25.70;50.50
65462;DHT22;53236;43.666;18.444;2022-11-15T07:19:42;26.40;49.20
65462;DHT22;53236;43.666;18.444;2022-11-15T07:22:07;25.70;49.00
65462;DHT22;53236;43.666;18.444;2022-11-15T07:24:33;24.80;49.40
65462;DHT22;53236;43.666;18.444;2022-11-15T07:26:59;23.30;52.60
65462;DHT22;53236;43.666;18.444;2022-11-15T07:29:24;21.90;55.60
65462;DHT22;53236;43.666;18.444;2022-11-15T07:31:50;20.90;58.10
65462;DHT22;53236;43.666;18.444;2022-11-15T07:34:16;19.60;61.00
65462;DHT22;53236;43.666;18.444;2022-11-15T07:36:41;18.80;65.00
65462;DHT22;53236;43.666;18.444;2022-11-15T07:39:07;18.00;69.50
65462;DHT22;53236;43.666;18.444;2022-11-15T07:41:33;17.20;74.20
65462;DHT22;53236;43.666;18.444;2022-11-15T07:43:59;16.70;82.40
65462;DHT22;53236;43.666;18.444;2022-11-15T07:46:24;16.40;86.60
65462;DHT22;53236;43.666;18.444;2022-11-15T07:48:50;16.20;90.90
65462;DHT22;53236;43.666;18.444;2022-11-15T07:51:16;15.90;91.40
65462;DHT22;53236;43.666;18.444;2022-11-15T07:53:43;15.70;93.10
65462;DHT22;53236;43.666;18.444;2022-11-15T07:56:09;15.40;96.30
65462;DHT22;53236;43.666;18.444;2022-11-15T07:58:35;15.40;97.20
65462;DHT22;53236;43.666;18.444;2022-11-15T08:01:06;15.50;97.20
65462;DHT22;53236;43.666;18.444;2022-11-15T08:03:32;15.70;96.00
65462;DHT22;53236;43.666;18.444;2022-11-15T08:05:58;16.00;95.00
65462;DHT22;53236;43.666;18.444;2022-11-15T08:08:25;16.10;94.60
65462;DHT22;53236;43.666;18.444;2022-11-15T08:10:51;16.10;94.40
65462;DHT22;53236;43.666;18.444;2022-11-15T08:13:18;15.90;94.90
65462;DHT22;53236;43.666;18.444;2022-11-15T08:15:44;15.90;95.60
65462;DHT22;53236;43.666;18.444;2022-11-15T08:18:15;16.00;95.90
65462;DHT22;53236;43.666;18.444;2022-11-15T08:20:42;16.10;95.10
65462;DHT22;53236;43.666;18.444;2022-11-15T08:23:10;16.00;95.20
65462;DHT22;53236;43.666;18.444;2022-11-15T08:25:37;15.90;96.30
65462;DHT22;53236;43.666;18.444;2022-11-15T08:28:06;15.80;96.50
65462;DHT22;53236;43.666;18.444;2022-11-15T08:30:40;15.70;97.40
65462;DHT22;53236;43.666;18.444;2022-11-15T08:33:10;15.60;97.70
65462;DHT22;53236;43.666;18.444;2022-11-15T08:35:37;15.80;97.60
65462;DHT22;53236;43.666;18.444;2022-11-15T08:38:03;15.90;97.40
65462;DHT22;53236;43.666;18.444;2022-11-15T08:40:28;16.10;98.00
65462;DHT22;53236;43.666;18.444;2022-11-15T08:42:54;16.20;98.00
65462;DHT22;53236;43.666;18.444;2022-11-15T08:45:20;16.10;97.10
65462;DHT22;53236;43.666;18.444;2022-11-15T08:47:45;15.90;96.60
65462;DHT22;53236;43.666;18.444;2022-11-15T08:50:11;15.90;96.30
65462;DHT22;53236;43.666;18.444;2022-11-15T08:52:37;16.10;97.00
65462;DHT22;53236;43.666;18.444;2022-11-15T08:55:03;16.20;98.20
65462;DHT22;53236;43.666;18.444;2022-11-15T08:57:29;16.60;98.60
65462;DHT22;53236;43.666;18.444;2022-11-15T08:59:56;17.00;95.50
65462;DHT22;53236;43.666;18.444;2022-11-15T09:02:21;17.20;94.40
65462;DHT22;53236;43.666;18.444;2022-11-15T09:04:47;17.40;92.00
65462;DHT22;53236;43.666;18.444;2022-11-15T09:07:13;18.00;88.00
65462;DHT22;53236;43.666;18.444;2022-11-15T09:09:39;18.20;85.00
65462;DHT22;53236;43.666;18.444;2022-11-15T09:12:06;18.00;85.20
65462;DHT22;53236;43.666;18.444;2022-11-15T09:14:33;17.80;84.70
65462;DHT22;53236;43.666;18.444;2022-11-15T09:16:58;17.20;90.30
65462;DHT22;53236;43.666;18.444;2022-11-15T09:19:24;17.80;90.30
65462;DHT22;53236;43.666;18.444;2022-11-15T09:21:50;18.90;79.20
65462;DHT22;53236;43.666;18.444;2022-11-15T09:24:16;19.10;76.70
65462;DHT22;53236;43.666;18.444;2022-11-15T09:26:43;19.00;75.60
65462;DHT22;53236;43.666;18.444;2022-11-15T09:29:09;19.10;73.40
65462;DHT22;53236;43.666;18.444;2022-11-15T09:31:34;19.30;68.80
65462;DHT22;53236;43.666;18.444;2022-11-15T09:34:00;19.10;67.00
65462;DHT22;53236;43.666;18.444;2022-11-15T09:36:26;18.80;67.80
65462;DHT22;53236;43.666;18.444;2022-11-15T09:38:51;18.50;69.60
65462;DHT22;53236;43.666;18.444;2022-11-15T09:41:50;18.00;68.10
65462;DHT22;53236;43.666;18.444;2022-11-15T09:50:26;17.00;66.40
65462;DHT22;53236;43.666;18.444;2022-11-15T09:52:55;16.90;65.80
65462;DHT22;53236;43.666;18.444;2022-11-15T09:55:32;16.70;67.20
65462;DHT22;53236;43.666;18.444;2022-11-15T09:58:26;16.80;63.80
65462;DHT22;53236;43.666;18.444;2022-11-15T10:00:54;16.70;63.60
65462;DHT22;53236;43.666;18.444;2022-11-15T10:03:31;17.40;62.10
65462;DHT22;53236;43.666;18.444;2022-11-15T10:06:01;21.20;56.20
65462;DHT22;53236;43.666;18.444;2022-11-15T10:11:35;27.90;41.60
65462;DHT22;53236;43.666;18.444;2022-11-15T10:14:08;26.70;41.50
65462;DHT22;53236;43.666;18.444;2022-11-15T10:24:41;21.00;46.80
65462;DHT22;53236;43.666;18.444;2022-11-15T10:27:15;20.20;49.30
65462;DHT22;53236;43.666;18.444;2022-11-15T10:29:49;19.60;50.10
65462;DHT22;53236;43.666;18.444;2022-11-15T10:32:18;18.80;51.90
65462;DHT22;53236;43.666;18.444;2022-11-15T10:34:44;18.00;54.30
65462;DHT22;53236;43.666;18.444;2022-11-15T10:37:10;17.60;56.20
65462;DHT22;53236;43.666;18.444;2022-11-15T10:39:36;17.40;56.90
65462;DHT22;53236;43.666;18.444;2022-11-15T10:42:28;17.40;57.30
65462;DHT22;53236;43.666;18.444;2022-11-15T10:44:55;17.40;57.60
65462;DHT22;53236;43.666;18.444;2022-11-15T10:47:22;17.00;58.90
65462;DHT22;53236;43.666;18.444;2022-11-15T10:52:28;16.80;63.00
65462;DHT22;53236;43.666;18.444;2022-11-15T10:55:00;16.30;63.20
65462;DHT22;53236;43.666;18.444;2022-11-15T10:57:33;16.10;67.10
65462;DHT22;53236;43.666;18.444;2022-11-15T11:00:05;15.60;70.60
65462;DHT22;53236;43.666;18.444;2022-11-15T11:02:38;15.70;78.10
65462;DHT22;53236;43.666;18.444;2022-11-15T11:07:56;17.00;78.30
65462;DHT22;53236;43.666;18.444;2022-11-15T11:10:23;19.60;69.30
65462;DHT22;53236;43.666;18.444;2022-11-15T11:12:48;21.00;62.20
65462;DHT22;53236;43.666;18.444;2022-11-15T11:15:16;20.30;61.10
65462;DHT22;53236;43.666;18.444;2022-11-15T11:26:46;17.00;67.00
65462;DHT22;53236;43.666;18.444;2022-11-15T11:29:30;16.60;71.00
65462;DHT22;53236;43.666;18.444;2022-11-15T11:32:29;16.70;72.70
65462;DHT22;53236;43.666;18.444;2022-11-15T11:35:08;17.50;69.10
65462;DHT22;53236;43.666;18.444;2022-11-15T11:40:35;17.80;60.00
65462;DHT22;53236;43.666;18.444;2022-11-15T11:49:31;17.50;60.60
65462;DHT22;53236;43.666;18.444;2022-11-15T11:52:13;17.70;59.80
65462;DHT22;53236;43.666;18.444;2022-11-15T11:54:59;17.80;57.90
65462;DHT22;53236;43.666;18.444;2022-11-15T12:02:34;17.60;57.00
65462;DHT22;53236;43.666;18.444;2022-11-15T12:05:28;17.50;56.40
65462;DHT22;53236;43.666;18.444;2022-11-15T12:08:03;17.20;56.80
65462;DHT22;53236;43.666;18.444;2022-11-15T12:10:30;16.80;57.30
65462;DHT22;53236;43.666;18.444;2022-11-15T12:13:08;16.50;57.30
65462;DHT22;53236;43.666;18.444;2022-11-15T12:18:19;16.40;59.30
65462;DHT22;53236;43.666;18.444;2022-11-15T12:21:00;16.50;59.90
65462;DHT22;53236;43.666;18.444;2022-11-15T12:23:31;16.60;59.90
65462;DHT22;53236;43.666;18.444;2022-11-15T12:26:00;16.90;59.00
65462;DHT22;53236;43.666;18.444;2022-11-15T12:28:54;17.00;57.70
65462;DHT22;53236;43.666;18.444;2022-11-15T12:31:39;17.20;57.10
65462;DHT22;53236;43.666;18.444;2022-11-15T12:34:34;17.40;57.60
65462;DHT22;53236;43.666;18.444;2022-11-15T12:37:02;17.40;57.80
65462;DHT22;53236;43.666;18.444;2022-11-15T12:40:19;17.40;56.30
65462;DHT22;53236;43.666;18.444;2022-11-15T12:45:43;17.40;56.00
65462;DHT22;53236;43.666;18.444;2022-11-15T12:56:28;17.10;57.60
65462;DHT22;53236;43.666;18.444;2022-11-15T12:58:57;17.40;54.70
65462;DHT22;53236;43.666;18.444;2022-11-15T13:04:24;17.50;53.60
65462;DHT22;53236;43.666;18.444;2022-11-15T13:06:59;17.50;55.00
65462;DHT22;53236;43.666;18.444;2022-11-15T13:14:50;16.70;55.40
65462;DHT22;53236;43.666;18.444;2022-11-15T13:22:21;16.60;56.70
65462;DHT22;53236;43.666;18.444;2022-11-15T13:25:27;16.40;57.70
65462;DHT22;53236;43.666;18.444;2022-11-15T13:27:56;16.30;57.00
65462;DHT22;53236;43.666;18.444;2022-11-15T13:30:27;16.30;59.10
65462;DHT22;53236;43.666;18.444;2022-11-15T13:32:54;16.30;57.50
65462;DHT22;53236;43.666;18.444;2022-11-15T13:35:40;16.40;56.90
65462;DHT22;53236;43.666;18.444;2022-11-15T13:38:06;16.30;56.80
65462;DHT22;53236;43.666;18.444;2022-11-15T13:40:36;15.80;58.40
65462;DHT22;53236;43.666;18.444;2022-11-15T13:43:35;15.70;60.50
65462;DHT22;53236;43.666;18.444;2022-11-15T13:48:33;15.60;61.30
65462;DHT22;53236;43.666;18.444;2022-11-15T13:51:03;15.90;61.80
65462;DHT22;53236;43.666;18.444;2022-11-15T13:53:32;16.10;59.20
65462;DHT22;53236;43.666;18.444;2022-11-15T13:55:59;16.10;59.00
65462;DHT22;53236;43.666;18.444;2022-11-15T13:58:25;16.10;60.20
65462;DHT22;53236;43.666;18.444;2022-11-15T14:01:00;16.20;59.00
65462;DHT22;53236;43.666;18.444;2022-11-15T14:03:34;16.40;58.80
65462;DHT22;53236;43.666;18.444;2022-11-15T14:06:10;16.60;58.10
65462;DHT22;53236;43.666;18.444;2022-11-15T14:08:39;16.40;56.50
65462;DHT22;53236;43.666;18.444;2022-11-15T14:13:37;16.30;57.40
65462;DHT22;53236;43.666;18.444;2022-11-15T14:16:20;16.20;57.40
65462;DHT22;53236;43.666;18.444;2022-11-15T14:18:51;16.10;57.70
65462;DHT22;53236;43.666;18.444;2022-11-15T14:21:19;15.80;57.90
65462;DHT22;53236;43.666;18.444;2022-11-15T14:23:46;15.50;58.90
65462;DHT22;53236;43.666;18.444;2022-11-15T14:26:32;15.30;60.10
65462;DHT22;53236;43.666;18.444;2022-11-15T14:31:49;15.30;61.00
65462;DHT22;53236;43.666;18.444;2022-11-15T14:34:15;15.10;61.20
65462;DHT22;53236;43.666;18.444;2022-11-15T14:36:40;15.00;61.40
65462;DHT22;53236;43.666;18.444;2022-11-15T14:39:06;15.20;62.20
65462;DHT22;53236;43.666;18.444;2022-11-15T14:41:35;15.40;61.50
65462;DHT22;53236;43.666;18.444;2022-11-15T14:44:05;15.30;60.30
65462;DHT22;53236;43.666;18.444;2022-11-15T14:46:32;15.50;60.40
65462;DHT22;53236;43.666;18.444;2022-11-15T14:48:58;15.70;60.50
65462;DHT22;53236;43.666;18.444;2022-11-15T14:51:23;15.70;60.30
65462;DHT22;53236;43.666;18.444;2022-11-15T14:53:49;15.70;60.00
65462;DHT22;53236;43.666;18.444;2022-11-15T14:56:15;15.50;59.80
65462;DHT22;53236;43.666;18.444;2022-11-15T14:58:45;15.40;60.70
65462;DHT22;53236;43.666;18.444;2022-11-15T15:01:16;15.30;60.60
65462;DHT22;53236;43.666;18.444;2022-11-15T15:03:43;15.30;61.00
65462;DHT22;53236;43.666;18.444;2022-11-15T15:06:09;15.40;60.60
65462;DHT22;53236;43.666;18.444;2022-11-15T15:08:38;15.10;61.90
65462;DHT22;53236;43.666;18.444;2022-11-15T15:11:11;15.10;62.60
65462;DHT22;53236;43.666;18.444;2022-11-15T15:13:38;15.10;62.40
65462;DHT22;53236;43.666;18.444;2022-11-15T15:16:03;15.10;62.50
65462;DHT22;53236;43.666;18.444;2022-11-15T15:18:29;15.00;64.70
65462;DHT22;53236;43.666;18.444;2022-11-15T15:20:59;14.90;65.10
65462;DHT22;53236;43.666;18.444;2022-11-15T15:23:27;14.70;67.10
65462;DHT22;53236;43.666;18.444;2022-11-15T15:25:56;14.50;67.90
65462;DHT22;53236;43.666;18.444;2022-11-15T15:28:22;14.20;67.20
65462;DHT22;53236;43.666;18.444;2022-11-15T15:30:47;14.10;67.70
65462;DHT22;53236;43.666;18.444;2022-11-15T15:33:14;14.20;67.70
65462;DHT22;53236;43.666;18.444;2022-11-15T15:35:40;14.10;68.60
65462;DHT22;53236;43.666;18.444;2022-11-15T15:38:08;14.10;68.90
65462;DHT22;53236;43.666;18.444;2022-11-15T15:40:34;14.10;68.60
65462;DHT22;53236;43.666;18.444;2022-11-15T15:43:00;14.20;68.70
65462;DHT22;53236;43.666;18.444;2022-11-15T15:45:26;14.00;69.10
65462;DHT22;53236;43.666;18.444;2022-11-15T15:47:52;14.00;70.30
65462;DHT22;53236;43.666;18.444;2022-11-15T15:50:27;14.00;70.70
65462;DHT22;53236;43.666;18.444;2022-11-15T15:52:55;13.90;70.60
65462;DHT22;53236;43.666;18.444;2022-11-15T15:55:22;13.80;71.40
65462;DHT22;53236;43.666;18.444;2022-11-15T15:57:48;13.80;71.80
65462;DHT22;53236;43.666;18.444;2022-11-15T16:00:14;13.70;72.00
65462;DHT22;53236;43.666;18.444;2022-11-15T16:02:40;13.60;71.80
65462;DHT22;53236;43.666;18.444;2022-11-15T16:05:06;13.60;72.00
65462;DHT22;53236;43.666;18.444;2022-11-15T16:07:32;13.30;76.00
65462;DHT22;53236;43.666;18.444;2022-11-15T16:09:58;13.20;77.60
65462;DHT22;53236;43.666;18.444;2022-11-15T16:14:53;13.10;78.70
65462;DHT22;53236;43.666;18.444;2022-11-15T16:17:22;13.10;79.40
65462;DHT22;53236;43.666;18.444;2022-11-15T16:19:48;13.10;80.30
65462;DHT22;53236;43.666;18.444;2022-11-15T16:22:14;13.10;81.30
65462;DHT22;53236;43.666;18.444;2022-11-15T16:24:39;13.00;81.40
65462;DHT22;53236;43.666;18.444;2022-11-15T16:27:05;12.90;81.70
65462;DHT22;53236;43.666;18.444;2022-11-15T16:29:31;12.60;85.50
65462;DHT22;53236;43.666;18.444;2022-11-15T16:31:56;12.30;89.40
65462;DHT22;53236;43.666;18.444;2022-11-15T16:34:22;12.30;90.00
65462;DHT22;53236;43.666;18.444;2022-11-15T16:36:50;12.30;89.20
65462;DHT22;53236;43.666;18.444;2022-11-15T16:39:15;12.30;89.30
65462;DHT22;53236;43.666;18.444;2022-11-15T16:41:43;12.40;88.70
65462;DHT22;53236;43.666;18.444;2022-11-15T16:44:12;12.30;88.90
65462;DHT22;53236;43.666;18.444;2022-11-15T16:46:41;12.20;90.30
65462;DHT22;53236;43.666;18.444;2022-11-15T16:49:14;12.10;90.90
65462;DHT22;53236;43.666;18.444;2022-11-15T16:51:40;12.00;91.30
65462;DHT22;53236;43.666;18.444;2022-11-15T16:54:07;12.00;91.70
65462;DHT22;53236;43.666;18.444;2022-11-15T16:56:33;12.00;91.60
65462;DHT22;53236;43.666;18.444;2022-11-15T16:58:59;11.90;91.60
65462;DHT22;53236;43.666;18.444;2022-11-15T17:01:28;11.90;91.70
65462;DHT22;53236;43.666;18.444;2022-11-15T17:03:54;11.80;91.70
65462;DHT22;53236;43.666;18.444;2022-11-15T17:06:21;11.70;92.30
65462;DHT22;53236;43.666;18.444;2022-11-15T17:08:47;11.60;92.80
65462;DHT22;53236;43.666;18.444;2022-11-15T17:11:19;11.40;93.20
65462;DHT22;53236;43.666;18.444;2022-11-15T17:13:45;11.30;94.30